TimeCST,TemperatureF,Dew PointF,Humidity,Sea Level PressureIn,VisibilityMPH,Wind Direction,Wind SpeedMPH,Gust SpeedMPH,PrecipitationIn,Events,Conditions,WindDirDegrees,DateUTC
12:15 AM,31.8,28.9,89,29.78,10.0,West,24.2,28.8,N/A,,Overcast,260,2012-12-10 06:15:00
12:35 AM,31.5,28.0,87,29.79,10.0,West,17.3,24.2,N/A,,Overcast,270,2012-12-10 06:35:00
12:55 AM,31.1,27.1,85,29.78,10.0,West,15.0,25.3,N/A,,Overcast,280,2012-12-10 06:55:00
1:15 AM,30.9,27.1,86,29.78,10.0,West,18.4,29.9,N/A,,Overcast,280,2012-12-10 07:15:00
1:35 AM,30.2,25.9,84,29.78,10.0,West,15.0,24.2,N/A,,Overcast,280,2012-12-10 07:35:00
1:55 AM,29.5,25.5,85,29.78,10.0,WNW,18.4,26.5,N/A,,Overcast,290,2012-12-10 07:55:00
2:15 AM,29.1,25.0,85,29.80,10.0,West,18.4,25.3,N/A,,Overcast,270,2012-12-10 08:15:00
2:35 AM,28.9,24.8,84,29.80,10.0,West,13.8,21.9,N/A,,Overcast,280,2012-12-10 08:35:00
2:55 AM,28.8,24.6,84,29.80,10.0,WNW,15.0,21.9,N/A,,Overcast,290,2012-12-10 08:55:00
3:15 AM,28.8,24.6,84,29.79,10.0,West,18.4,26.5,N/A,,Overcast,270,2012-12-10 09:15:00
3:35 AM,28.6,24.4,84,29.79,10.0,West,13.8,23.0,N/A,,Overcast,270,2012-12-10 09:35:00
4:15 AM,28.4,24.4,85,29.79,10.0,West,18.4,23.0,N/A,,Overcast,270,2012-12-10 10:15:00
4:55 AM,28.2,24.6,86,29.79,10.0,West,18.4,25.3,N/A,,Overcast,280,2012-12-10 10:55:00
5:15 AM,27.5,24.3,88,29.79,10.0,West,17.3,-,N/A,,Overcast,280,2012-12-10 11:15:00
5:35 AM,27.5,24.4,88,29.79,10.0,West,19.6,24.2,N/A,,Overcast,280,2012-12-10 11:35:00
5:55 AM,27.5,24.4,88,29.80,10.0,West,15.0,18.4,N/A,,Overcast,270,2012-12-10 11:55:00
6:15 AM,27.5,24.3,88,29.80,10.0,West,16.1,25.3,N/A,,Overcast,280,2012-12-10 12:15:00
6:35 AM,28.4,24.8,86,29.80,10.0,WNW,12.7,20.7,N/A,,Overcast,290,2012-12-10 12:35:00
6:55 AM,27.5,24.8,90,29.81,10.0,West,16.1,20.7,N/A,,Overcast,280,2012-12-10 12:55:00
7:15 AM,27.5,25.2,91,29.81,7.0,West,13.8,19.6,N/A,,Overcast,280,2012-12-10 13:15:00
7:35 AM,27.5,25.3,92,29.81,5.0,West,15.0,-,N/A,,Overcast,280,2012-12-10 13:35:00
7:55 AM,27.5,25.7,93,29.82,5.0,West,13.8,20.7,N/A,,Overcast,280,2012-12-10 13:55:00
8:15 AM,28.0,25.7,91,29.83,5.0,West,15.0,18.4,N/A,,Overcast,280,2012-12-10 14:15:00
8:35 AM,28.4,25.9,90,29.83,5.0,West,17.3,23.0,N/A,,Overcast,280,2012-12-10 14:35:00
8:55 AM,28.8,26.1,90,29.83,7.0,West,15.0,23.0,N/A,,Overcast,280,2012-12-10 14:55:00
9:15 AM,28.4,26.6,93,29.84,7.0,West,17.3,21.9,N/A,,Overcast,270,2012-12-10 15:15:00
9:35 AM,29.3,26.2,88,29.85,7.0,West,16.1,-,N/A,,Overcast,280,2012-12-10 15:35:00
9:55 AM,29.3,26.6,90,29.85,7.0,West,15.0,21.9,N/A,,Overcast,270,2012-12-10 15:55:00
10:35 AM,30.0,27.3,90,29.85,7.0,West,16.1,23.0,N/A,,Overcast,270,2012-12-10 16:35:00
11:15 AM,30.2,27.5,90,29.85,7.0,WNW,15.0,-,N/A,,Overcast,290,2012-12-10 17:15:00
11:35 AM,30.2,28.4,93,29.84,7.0,West,13.8,20.7,N/A,,Overcast,280,2012-12-10 17:35:00
11:55 AM,29.8,27.1,90,29.84,10.0,West,17.3,21.9,N/A,,Overcast,280,2012-12-10 17:55:00
12:15 PM,29.3,26.6,90,29.84,10.0,WNW,13.8,-,N/A,,Overcast,290,2012-12-10 18:15:00
12:35 PM,29.1,26.1,88,29.84,10.0,WNW,13.8,-,N/A,,Overcast,290,2012-12-10 18:35:00
12:55 PM,28.9,25.7,88,29.83,10.0,West,16.1,20.7,N/A,,Overcast,280,2012-12-10 18:55:00
1:15 PM,28.4,25.7,90,29.83,10.0,WNW,13.8,19.6,N/A,,Overcast,290,2012-12-10 19:15:00
1:35 PM,28.4,25.7,90,29.83,10.0,WNW,13.8,17.3,N/A,,Overcast,290,2012-12-10 19:35:00
1:55 PM,28.6,25.9,90,29.84,10.0,West,12.7,18.4,N/A,,Overcast,280,2012-12-10 19:55:00
2:15 PM,28.8,25.7,88,29.84,10.0,West,16.1,19.6,N/A,,Overcast,270,2012-12-10 20:15:00
2:35 PM,28.4,25.7,90,29.85,10.0,West,16.1,21.9,N/A,,Overcast,280,2012-12-10 20:35:00
2:55 PM,28.4,25.7,90,29.86,10.0,West,15.0,18.4,N/A,,Overcast,280,2012-12-10 20:55:00
3:15 PM,28.4,25.7,90,29.87,7.0,West,11.5,-,N/A,,Overcast,280,2012-12-10 21:15:00
3:35 PM,28.4,25.7,90,29.87,7.0,West,15.0,19.6,N/A,,Overcast,280,2012-12-10 21:35:00
3:55 PM,28.4,25.3,88,29.88,10.0,West,16.1,20.7,N/A,,Overcast,280,2012-12-10 21:55:00
4:15 PM,28.4,25.2,88,29.88,10.0,West,11.5,17.3,N/A,,Overcast,280,2012-12-10 22:15:00
4:35 PM,28.4,25.2,88,29.89,10.0,West,13.8,18.4,N/A,,Overcast,280,2012-12-10 22:35:00
4:55 PM,28.4,25.3,88,29.90,10.0,West,11.5,-,N/A,,Overcast,280,2012-12-10 22:55:00
5:15 PM,28.4,25.3,88,29.90,10.0,West,9.2,19.6,N/A,,Overcast,280,2012-12-10 23:15:00
5:35 PM,28.4,25.2,88,29.91,10.0,West,13.8,-,N/A,,Overcast,280,2012-12-10 23:35:00
5:55 PM,28.4,25.0,87,29.91,10.0,West,11.5,17.3,N/A,,Overcast,280,2012-12-10 23:55:00
6:15 PM,28.4,24.8,86,29.93,10.0,West,10.4,17.3,N/A,,Overcast,280,2012-12-11 00:15:00
6:35 PM,28.4,24.8,86,29.93,10.0,West,11.5,17.3,N/A,,Overcast,280,2012-12-11 00:35:00
6:55 PM,28.4,24.6,86,29.93,10.0,WNW,9.2,-,N/A,,Overcast,290,2012-12-11 00:55:00
7:15 PM,28.4,24.6,86,29.93,10.0,West,9.2,-,N/A,,Overcast,280,2012-12-11 01:15:00
7:35 PM,28.4,24.8,86,29.94,10.0,West,10.4,-,N/A,,Overcast,280,2012-12-11 01:35:00
7:55 PM,28.4,24.8,86,29.95,10.0,West,11.5,-,N/A,,Overcast,280,2012-12-11 01:55:00
8:15 PM,28.4,24.8,86,29.96,10.0,West,9.2,-,N/A,,Overcast,280,2012-12-11 02:15:00
8:35 PM,28.0,24.4,86,29.96,10.0,West,10.4,-,N/A,,Overcast,280,2012-12-11 02:35:00
8:55 PM,28.0,24.3,86,29.97,10.0,West,12.7,-,N/A,,Overcast,280,2012-12-11 02:55:00
9:15 PM,28.0,23.9,84,29.98,10.0,West,10.4,-,N/A,,Overcast,280,2012-12-11 03:15:00
9:35 PM,28.4,24.8,86,29.97,10.0,WNW,8.1,-,N/A,,Overcast,300,2012-12-11 03:35:00
9:55 PM,27.9,24.3,86,29.98,10.0,West,5.8,-,N/A,,Overcast,270,2012-12-11 03:55:00
10:15 PM,27.5,24.1,87,29.98,10.0,West,5.8,-,N/A,,Overcast,280,2012-12-11 04:15:00
10:35 PM,27.5,23.5,85,29.98,10.0,WNW,5.8,-,N/A,,Overcast,290,2012-12-11 04:35:00
11:15 PM,27.5,23.7,86,29.98,10.0,West,8.1,-,N/A,,Overcast,270,2012-12-11 05:15:00
11:55 PM,27.5,23.5,85,29.98,10.0,West,10.4,-,N/A,,Overcast,270,2012-12-11 05:55:00